Current Weather

Davison Aaf

Fort Belvoir, Virginia (KDAA)

Report from: Friday, June 21, 2024 6:55 PM EDT
Current time: Friday, June 21, 2024 7:19 PM EDT

Nearby weather – Weather history – Daily summaries
Weather forecast

Temperature33.1°C (91.6°F)
Heat index34.9°C (94.8°F)
Dew point19.2°C (66.6°F)
Winds 7 kts (3.6 m/s, 8.1 mph) Southeast (130°)
Visibility10 mi. (16.1 km)
Clouds Sky clear
Altimeter30.06 in.Hg (1018 mB)
Relative humidity44 %
Density altitude2,199 ft. (670 m)
Sea-level pressure101.8 kPa (1018 mB, 30.07 in.Hg)
Remarks Fully automated report
Automated weather observing station with precipitation discriminator
Flight conditions Visual Meteorological Conditions
Raw dataKDAA 212255Z AUTO 13007KT 10SM CLR 33/19 A3006 RMK AO2 SLP182 T03310192
An error has occurred. This application may no longer respond until reloaded. Reload 🗙